createdAt,value
2023-02-14T00:01:31.071Z,51.33
2023-02-14T00:04:01.342Z,46.00
2023-02-14T00:06:32.999Z,42.00
2023-02-14T00:09:02.237Z,34.00
2023-02-14T00:11:30.370Z,33.67
2023-02-14T00:14:16.789Z,36.00
2023-02-14T00:16:44.870Z,30.00
2023-02-14T00:19:14.896Z,18.33
2023-02-14T00:21:43.309Z,20.00
2023-02-14T00:24:16.350Z,18.00
2023-02-14T00:26:43.855Z,21.00
2023-02-14T00:29:18.302Z,16.00
2023-02-14T00:31:46.510Z,19.00
2023-02-14T00:34:16.234Z,21.33
2023-02-14T00:36:45.503Z,16.00
2023-02-14T00:39:15.237Z,19.00
2023-02-14T00:41:43.799Z,17.67
2023-02-14T00:44:12.954Z,18.67
2023-02-14T00:46:41.175Z,18.00
2023-02-14T00:49:09.531Z,16.67
2023-02-14T00:51:37.421Z,19.00
2023-02-14T00:54:06.032Z,19.00
2023-02-14T00:56:33.988Z,19.67
2023-02-14T00:59:01.931Z,14.33
2023-02-14T01:01:30.863Z,16.20
2023-02-14T01:03:59.103Z,18.67
2023-02-14T01:06:27.503Z,18.00
2023-02-14T01:08:55.323Z,6.25
2023-02-14T01:11:24.086Z,18.00
2023-02-14T01:13:54.106Z,21.00
2023-02-14T01:16:24.531Z,22.00
2023-02-14T01:18:52.469Z,19.00
2023-02-14T01:21:26.129Z,16.67
2023-02-14T01:23:56.273Z,19.00
2023-02-14T01:26:25.828Z,16.67
2023-02-14T01:28:57.015Z,11.71
2023-02-14T01:31:28.014Z,15.67
2023-02-14T01:33:58.019Z,12.40
2023-02-14T01:36:32.883Z,20.33
2023-02-14T01:39:06.579Z,18.67
2023-02-14T01:41:37.958Z,12.50
2023-02-14T01:44:28.120Z,17.20
2023-02-14T01:46:56.581Z,15.00
2023-02-14T01:49:35.816Z,14.00
2023-02-14T01:52:23.528Z,18.50
2023-02-14T01:54:59.327Z,15.00
2023-02-14T01:57:37.104Z,14.67
2023-02-14T02:00:24.932Z,18.00
2023-02-14T02:02:53.375Z,17.33
2023-02-14T02:05:24.011Z,16.00
2023-02-14T02:07:54.160Z,13.00
2023-02-14T02:10:22.033Z,15.67
2023-02-14T02:12:53.539Z,18.17
2023-02-14T02:15:27.266Z,12.00
2023-02-14T02:18:16.788Z,14.33
2023-02-14T02:21:07.259Z,16.33
2023-02-14T02:23:59.386Z,19.33
2023-02-14T02:26:45.936Z,18.50
2023-02-14T02:29:41.064Z,13.57
2023-02-14T02:32:30.101Z,15.00
2023-02-14T02:35:30.888Z,14.00
2023-02-14T02:38:10.466Z,17.33
2023-02-14T02:41:14.340Z,14.67
2023-02-14T02:44:14.329Z,17.33
2023-02-14T02:47:01.751Z,13.00
2023-02-14T02:50:03.229Z,14.33
2023-02-14T02:53:03.279Z,13.80
2023-02-14T02:55:57.056Z,15.33
2023-02-14T02:58:35.174Z,14.33
2023-02-14T03:01:08.738Z,14.00
2023-02-14T03:03:58.007Z,16.00
2023-02-14T03:06:25.908Z,9.00
2023-02-14T03:08:53.838Z,13.00
2023-02-14T03:11:21.821Z,13.00
2023-02-14T03:13:54.614Z,12.00
2023-02-14T03:16:50.630Z,16.33
2023-02-14T03:20:18.087Z,11.75
2023-02-14T03:22:49.441Z,15.20
2023-02-14T03:25:30.382Z,18.00
2023-02-14T03:28:24.115Z,17.33
2023-02-14T03:31:01.934Z,13.00
2023-02-14T03:33:30.055Z,15.33
2023-02-14T03:36:09.072Z,12.67
2023-02-14T03:39:05.705Z,12.33
2023-02-14T03:41:44.626Z,15.00
2023-02-14T03:44:17.431Z,13.00
2023-02-14T03:46:53.776Z,15.67
2023-02-14T03:49:28.017Z,15.00
2023-02-14T03:51:57.442Z,16.00
2023-02-14T03:54:27.347Z,13.00
2023-02-14T03:57:07.484Z,15.50
2023-02-14T03:59:35.626Z,13.00
2023-02-14T04:02:29.950Z,12.50
2023-02-14T04:05:04.176Z,7.86
2023-02-14T04:07:31.307Z,14.00
2023-02-14T04:09:59.185Z,16.67
2023-02-14T04:12:37.801Z,18.00
2023-02-14T04:15:17.054Z,14.60
2023-02-14T04:18:02.633Z,18.00
2023-02-14T04:20:30.939Z,14.33
2023-02-14T04:22:58.768Z,18.00
2023-02-14T04:25:25.968Z,16.00
2023-02-14T04:27:53.769Z,15.33
2023-02-14T04:30:23.829Z,14.33
2023-02-14T04:32:52.434Z,14.33
2023-02-14T04:35:20.185Z,15.00
2023-02-14T04:37:47.168Z,15.00
2023-02-14T04:40:18.363Z,13.00
2023-02-14T04:42:47.148Z,10.00
2023-02-14T04:45:16.350Z,16.00
2023-02-14T04:47:44.174Z,13.00
2023-02-14T04:50:14.142Z,15.33
2023-02-14T04:52:43.167Z,15.40
2023-02-14T04:55:14.317Z,16.00
2023-02-14T04:57:43.951Z,15.00
2023-02-14T05:00:16.129Z,18.83
2023-02-14T05:02:45.002Z,16.00
2023-02-14T05:05:14.604Z,15.33
2023-02-14T05:07:47.945Z,16.20
2023-02-14T05:10:21.417Z,14.33
2023-02-14T05:12:49.082Z,16.00
2023-02-14T05:15:17.038Z,20.33
2023-02-14T05:17:45.006Z,22.00
2023-02-14T05:20:12.160Z,25.00
2023-02-14T05:22:40.007Z,22.67
2023-02-14T05:25:08.808Z,22.00
2023-02-14T05:27:35.797Z,21.00
2023-02-14T05:30:04.405Z,26.00
2023-02-14T05:32:32.420Z,22.00
2023-02-14T05:35:01.194Z,23.67
2023-02-14T05:37:29.238Z,25.67
2023-02-14T05:39:57.396Z,22.67
2023-02-14T05:42:25.390Z,24.00
2023-02-14T05:44:53.112Z,25.00
2023-02-14T05:47:20.988Z,28.67
2023-02-14T05:49:49.677Z,24.00
2023-02-14T05:52:17.540Z,14.33
2023-02-14T05:54:48.794Z,26.33
2023-02-14T05:57:20.424Z,27.00
2023-02-14T05:59:48.197Z,22.00
2023-02-14T06:02:16.257Z,26.00
2023-02-14T06:04:43.976Z,23.00
2023-02-14T06:07:12.683Z,24.50
2023-02-14T06:09:40.735Z,27.00
2023-02-14T06:12:08.888Z,21.67
2023-02-14T06:14:37.156Z,16.00
2023-02-14T06:17:07.333Z,24.33
2023-02-14T06:19:35.891Z,24.33
2023-02-14T06:22:04.754Z,21.33
2023-02-14T06:24:31.753Z,24.00
2023-02-14T06:26:59.852Z,19.00
2023-02-14T06:29:27.820Z,25.67
2023-02-14T06:31:55.237Z,21.50
2023-02-14T06:34:22.309Z,25.00
2023-02-14T06:36:50.331Z,22.00
2023-02-14T06:39:18.187Z,28.00
2023-02-14T06:41:46.116Z,30.00
2023-02-14T06:44:13.912Z,28.00
2023-02-14T06:46:41.161Z,27.00
2023-02-14T06:49:10.982Z,25.67
2023-02-14T06:51:38.028Z,27.50
2023-02-14T06:54:05.098Z,25.00
2023-02-14T06:56:32.117Z,33.00
2023-02-14T06:58:59.845Z,27.33
2023-02-14T07:01:27.942Z,30.00
2023-02-14T07:04:13.801Z,32.00
2023-02-14T07:06:41.894Z,26.33
2023-02-14T07:09:08.753Z,24.50
2023-02-14T07:11:36.639Z,26.33
2023-02-14T07:14:04.567Z,13.67
2023-02-14T07:16:32.626Z,18.33
2023-02-14T07:18:59.934Z,20.00
2023-02-14T07:21:29.530Z,22.33
2023-02-14T07:23:57.222Z,18.67
2023-02-14T07:26:26.856Z,19.00
2023-02-14T07:28:54.828Z,19.67
2023-02-14T07:31:23.732Z,21.67
2023-02-14T07:33:52.505Z,22.00
2023-02-14T07:36:20.380Z,24.33
2023-02-14T07:38:48.270Z,15.33
2023-02-14T07:41:15.272Z,22.00
2023-02-14T07:43:43.088Z,21.00
2023-02-14T07:46:11.037Z,16.67
2023-02-14T07:48:39.501Z,17.67
2023-02-14T07:51:07.248Z,22.00
2023-02-14T07:53:34.657Z,27.00
2023-02-14T07:56:02.529Z,27.33
2023-02-14T07:58:30.324Z,13.33
2023-02-14T08:00:58.495Z,21.00
2023-02-14T08:03:25.699Z,22.00
2023-02-14T08:05:57.480Z,20.50
2023-02-14T08:08:29.699Z,18.00
2023-02-14T08:10:58.305Z,19.00
2023-02-14T08:13:26.544Z,19.67
2023-02-14T08:16:06.620Z,23.33
2023-02-14T08:18:40.648Z,24.67
2023-02-14T08:21:10.817Z,23.33
2023-02-14T08:23:38.558Z,21.00
2023-02-14T08:26:06.776Z,19.67
2023-02-14T08:28:35.330Z,22.33
2023-02-14T08:31:04.675Z,24.00
2023-02-14T08:33:31.679Z,25.00
2023-02-14T08:35:58.633Z,22.00
2023-02-14T08:38:25.681Z,21.00
2023-02-14T08:40:52.942Z,27.50
2023-02-14T08:43:20.874Z,22.00
2023-02-14T08:45:52.170Z,25.00
2023-02-14T08:48:23.924Z,20.50
2023-02-14T08:50:51.740Z,22.67
2023-02-14T08:53:19.728Z,21.00
2023-02-14T08:55:48.207Z,18.33
2023-02-14T08:58:17.952Z,21.50
2023-02-14T09:00:44.895Z,22.00
2023-02-14T09:03:12.790Z,21.00
2023-02-14T09:05:40.598Z,24.67
2023-02-14T09:08:08.544Z,24.33
2023-02-14T09:10:35.647Z,25.00
2023-02-14T09:13:03.954Z,19.00
2023-02-14T09:15:32.000Z,31.33
2023-02-14T09:18:00.193Z,25.00
2023-02-14T09:20:27.147Z,22.00
2023-02-14T09:22:57.472Z,21.50
2023-02-14T09:25:24.913Z,25.00
2023-02-14T09:27:52.942Z,26.33
2023-02-14T09:30:20.201Z,27.00
2023-02-14T09:32:48.066Z,27.00
2023-02-14T09:35:15.141Z,22.50
2023-02-14T09:37:43.515Z,25.33
2023-02-14T09:40:15.657Z,24.00
2023-02-14T09:42:56.908Z,25.00
2023-02-14T09:45:29.308Z,23.00
2023-02-14T09:48:03.505Z,28.67
2023-02-14T09:50:40.430Z,20.67
2023-02-14T09:53:23.759Z,29.00
2023-02-14T09:56:35.229Z,25.50
2023-02-14T09:59:24.368Z,29.00
2023-02-14T10:01:59.995Z,30.00
2023-02-14T10:04:42.652Z,27.67
2023-02-14T10:07:32.788Z,29.00
2023-02-14T10:10:29.148Z,25.00
2023-02-14T10:12:59.888Z,25.00
2023-02-14T10:15:32.330Z,30.00
2023-02-14T10:18:08.295Z,28.00
2023-02-14T10:20:49.386Z,31.00
2023-02-14T10:23:36.339Z,28.67
2023-02-14T10:26:20.035Z,31.00
2023-02-14T10:28:50.029Z,28.00
2023-02-14T10:31:51.865Z,29.00
2023-02-14T10:34:55.979Z,28.67
2023-02-14T10:37:32.691Z,30.00
2023-02-14T10:40:17.319Z,20.50
2023-02-14T10:43:23.455Z,26.50
2023-02-14T10:46:08.396Z,26.50
2023-02-14T10:49:04.231Z,25.33
2023-02-14T10:52:02.353Z,25.00
2023-02-14T10:54:39.194Z,24.50
2023-02-14T10:57:17.352Z,29.00
2023-02-14T11:00:01.874Z,27.00
2023-02-14T11:02:44.247Z,31.00
2023-02-14T11:05:26.147Z,29.00
2023-02-14T11:07:56.540Z,28.00
2023-02-14T11:10:34.227Z,27.33
2023-02-14T11:13:24.924Z,29.50
2023-02-14T11:15:54.218Z,29.67
2023-02-14T11:18:36.514Z,30.33
2023-02-14T11:21:14.477Z,32.50
2023-02-14T11:23:49.057Z,29.67
2023-02-14T11:26:23.439Z,30.67
2023-02-14T11:28:56.842Z,29.67
2023-02-14T11:31:38.068Z,29.00
2023-02-14T11:34:23.282Z,20.50
2023-02-14T11:36:52.224Z,30.00
2023-02-14T11:39:35.245Z,28.33
2023-02-14T11:42:05.809Z,30.00
2023-02-14T11:44:36.870Z,29.00
2023-02-14T11:47:27.566Z,30.33
2023-02-14T11:50:20.654Z,31.00
2023-02-14T11:52:53.148Z,29.67
2023-02-14T11:55:33.915Z,29.00
2023-02-14T11:58:06.193Z,29.00
2023-02-14T12:00:35.343Z,30.67
2023-02-14T12:03:06.588Z,29.00
2023-02-14T12:05:45.143Z,30.33
2023-02-14T12:08:13.472Z,29.50
2023-02-14T12:10:42.507Z,30.00
2023-02-14T12:13:10.430Z,30.00
2023-02-14T12:15:55.688Z,30.67
2023-02-14T12:18:57.696Z,33.00
2023-02-14T12:21:40.385Z,28.33
2023-02-14T12:24:24.512Z,30.00
2023-02-14T12:27:27.942Z,29.00
2023-02-14T12:30:22.653Z,31.67
2023-02-14T12:32:58.662Z,31.00
2023-02-14T12:36:09.372Z,31.50
2023-02-14T12:38:42.477Z,36.00
2023-02-14T12:41:36.059Z,35.33
2023-02-14T12:44:38.442Z,36.00
2023-02-14T12:47:29.972Z,33.00
2023-02-14T12:50:22.307Z,37.50
2023-02-14T12:52:50.949Z,31.33
2023-02-14T12:55:33.398Z,31.50
2023-02-14T12:58:13.726Z,31.00
2023-02-14T13:01:12.206Z,31.00
2023-02-14T13:03:53.581Z,32.33
2023-02-14T13:06:31.095Z,30.00
2023-02-14T13:09:09.194Z,32.67
2023-02-14T13:11:43.717Z,32.00
2023-02-14T13:14:14.450Z,32.00
2023-02-14T13:17:08.111Z,32.00
2023-02-14T13:20:14.226Z,31.50
2023-02-14T13:22:44.284Z,33.00
2023-02-14T13:25:33.804Z,29.33
2023-02-14T13:28:07.589Z,28.67
2023-02-14T13:30:41.416Z,32.00
2023-02-14T13:33:41.490Z,36.00
2023-02-14T13:36:13.150Z,29.33
2023-02-14T13:38:49.034Z,30.00
2023-02-14T13:41:20.131Z,30.00
2023-02-14T13:44:03.187Z,29.67
2023-02-14T13:46:34.669Z,27.00
2023-02-14T13:49:14.792Z,29.33
2023-02-14T13:51:51.924Z,27.00
2023-02-14T13:54:32.827Z,25.33
2023-02-14T13:57:04.043Z,26.67
2023-02-14T13:59:34.737Z,27.00
2023-02-14T14:02:30.231Z,29.00
2023-02-14T14:04:58.267Z,23.50
2023-02-14T14:07:30.529Z,29.00
2023-02-14T14:10:02.252Z,29.33
2023-02-14T14:12:33.874Z,24.00
2023-02-14T14:15:14.526Z,27.67
2023-02-14T14:17:46.510Z,22.00
2023-02-14T14:20:21.234Z,27.00
2023-02-14T14:22:54.783Z,28.33
2023-02-14T14:25:52.283Z,31.00
2023-02-14T14:28:23.297Z,31.50
2023-02-14T14:30:52.073Z,32.50
2023-02-14T14:33:34.037Z,31.33
2023-02-14T14:36:09.083Z,31.33
2023-02-14T14:38:49.501Z,25.00
2023-02-14T14:41:18.309Z,27.00
2023-02-14T14:43:47.563Z,27.00
2023-02-14T14:46:17.537Z,27.00
2023-02-14T14:48:51.546Z,27.50
2023-02-14T14:51:32.103Z,29.00
2023-02-14T14:54:03.561Z,27.00
2023-02-14T14:57:03.735Z,30.00
2023-02-14T14:59:35.894Z,33.00
2023-02-14T15:02:20.500Z,30.00
2023-02-14T15:04:49.491Z,31.00
2023-02-14T15:07:33.754Z,29.50
2023-02-14T15:10:03.385Z,28.33
2023-02-14T15:12:49.958Z,32.50
2023-02-14T15:15:19.461Z,26.33
2023-02-14T15:17:47.633Z,31.00
2023-02-14T15:20:21.750Z,35.00
2023-02-14T15:22:54.249Z,36.50
2023-02-14T15:25:23.767Z,36.50
2023-02-14T15:27:52.107Z,38.50
2023-02-14T15:30:23.495Z,35.67
2023-02-14T15:32:52.514Z,38.00
2023-02-14T15:35:34.295Z,40.00
2023-02-14T15:38:07.112Z,42.50
2023-02-14T15:40:36.251Z,40.67
2023-02-14T15:43:15.823Z,43.00
2023-02-14T15:45:47.305Z,40.00
2023-02-14T15:48:36.739Z,41.00
2023-02-14T15:51:06.998Z,43.00
2023-02-14T15:53:39.416Z,45.33
2023-02-14T15:56:15.686Z,46.00
2023-02-14T15:58:45.685Z,40.33
2023-02-14T16:01:14.688Z,48.00
2023-02-14T16:03:52.465Z,50.00
2023-02-14T16:06:36.752Z,48.00
2023-02-14T16:09:22.843Z,49.33
2023-02-14T16:11:55.414Z,51.33
2023-02-14T16:14:32.549Z,52.00
2023-02-14T16:17:14.294Z,36.00
2023-02-14T16:19:45.429Z,53.00
2023-02-14T16:22:38.544Z,55.67
2023-02-14T16:25:07.588Z,23.00
2023-02-14T16:27:36.463Z,61.33
2023-02-14T16:30:06.761Z,58.33
2023-02-14T16:32:37.324Z,58.00
2023-02-14T16:35:07.167Z,60.67
2023-02-14T16:37:36.326Z,54.00
2023-02-14T16:40:14.423Z,57.33
2023-02-14T16:42:44.316Z,52.67
2023-02-14T16:45:18.274Z,57.00
2023-02-14T16:47:49.107Z,54.67
2023-02-14T16:50:20.821Z,57.00
2023-02-14T16:52:52.008Z,62.00
2023-02-14T16:55:22.486Z,56.00
2023-02-14T16:57:53.414Z,63.33
2023-02-14T17:00:23.198Z,63.33
2023-02-14T17:02:52.068Z,59.00
2023-02-14T17:05:20.934Z,55.00
2023-02-14T17:07:49.813Z,56.00
2023-02-14T17:10:20.689Z,56.33
2023-02-14T17:12:51.185Z,53.00
2023-02-14T17:15:23.051Z,60.00
2023-02-14T17:17:57.180Z,61.33
2023-02-14T17:20:26.933Z,61.33
2023-02-14T17:22:56.827Z,55.00
2023-02-14T17:25:26.784Z,64.00
2023-02-14T17:27:57.078Z,70.67
2023-02-14T17:30:26.076Z,70.33
2023-02-14T17:32:55.127Z,64.00
2023-02-14T17:35:24.113Z,60.67
2023-02-14T17:37:51.976Z,55.00
2023-02-14T17:40:21.178Z,58.67
2023-02-14T17:42:50.988Z,57.00
2023-02-14T17:45:19.937Z,55.00
2023-02-14T17:47:48.943Z,64.00
2023-02-14T17:50:18.781Z,59.67
2023-02-14T17:52:47.538Z,69.00
2023-02-14T17:55:16.333Z,64.00
2023-02-14T17:57:45.454Z,64.67
2023-02-14T18:00:16.588Z,61.00
2023-02-14T18:02:45.628Z,61.00
2023-02-14T18:05:14.341Z,62.67
2023-02-14T18:07:43.559Z,55.67
2023-02-14T18:10:12.757Z,55.00
2023-02-14T18:12:39.838Z,46.00
2023-02-14T18:15:09.145Z,52.00
2023-02-14T18:17:38.171Z,52.67
2023-02-14T18:20:07.552Z,55.67
2023-02-14T18:22:37.223Z,61.00
2023-02-14T18:25:06.303Z,59.67
2023-02-14T18:27:35.248Z,57.67
2023-02-14T18:30:04.519Z,61.00
2023-02-14T18:32:33.301Z,63.00
2023-02-14T18:35:02.134Z,65.67
2023-02-14T18:37:30.788Z,61.00
2023-02-14T18:39:59.634Z,65.33
2023-02-14T18:42:28.298Z,60.33
2023-02-14T18:44:57.328Z,58.00
2023-02-14T18:47:25.992Z,60.33
2023-02-14T18:49:55.216Z,64.00
2023-02-14T18:52:24.345Z,64.00
2023-02-14T18:54:53.620Z,79.67
2023-02-14T18:57:21.492Z,42.00
2023-02-14T18:59:50.399Z,71.00
2023-02-14T19:02:19.866Z,76.00
2023-02-14T19:04:48.702Z,74.00
2023-02-14T19:07:17.648Z,73.00
2023-02-14T19:09:46.346Z,71.33
2023-02-14T19:12:15.163Z,72.00
2023-02-14T19:14:44.462Z,67.33
2023-02-14T19:17:13.262Z,77.67
2023-02-14T19:19:42.404Z,72.33
2023-02-14T19:22:11.471Z,70.00
2023-02-14T19:24:40.347Z,60.67
2023-02-14T19:27:09.394Z,52.67
2023-02-14T19:29:38.542Z,62.67
2023-02-14T19:32:07.373Z,66.00
2023-02-14T19:34:39.339Z,58.00
2023-02-14T19:37:08.065Z,60.67
2023-02-14T19:39:36.910Z,64.00
2023-02-14T19:42:05.734Z,57.67
2023-02-14T19:44:34.393Z,63.67
2023-02-14T19:47:19.254Z,61.00
2023-02-14T19:49:53.780Z,67.33
2023-02-14T19:52:26.938Z,77.33
2023-02-14T19:54:56.355Z,83.67
2023-02-14T19:57:25.842Z,78.67
2023-02-14T19:59:55.636Z,90.00
2023-02-14T20:02:24.832Z,84.67
2023-02-14T20:04:59.263Z,84.00
2023-02-14T20:07:28.261Z,73.33
2023-02-14T20:09:57.018Z,82.67
2023-02-14T20:12:26.132Z,85.00
2023-02-14T20:14:56.643Z,80.67
2023-02-14T20:17:25.729Z,69.33
2023-02-14T20:19:56.207Z,71.67
2023-02-14T20:22:25.989Z,77.33
2023-02-14T20:24:54.817Z,79.67
2023-02-14T20:27:25.765Z,85.67
2023-02-14T20:29:55.486Z,90.75
2023-02-14T20:32:24.301Z,89.67
2023-02-14T20:34:53.269Z,90.00
2023-02-14T20:37:22.214Z,94.33
2023-02-14T20:39:51.827Z,103.25
2023-02-14T20:42:20.803Z,97.33
2023-02-14T20:44:50.042Z,126.00
2023-02-14T20:47:20.217Z,136.50
2023-02-14T20:49:50.323Z,145.25
2023-02-14T20:52:19.514Z,117.00
2023-02-14T20:54:49.187Z,137.25
2023-02-14T20:57:18.147Z,127.67
2023-02-14T20:59:47.138Z,127.33
2023-02-14T21:02:17.551Z,105.75
2023-02-14T21:04:45.883Z,50.00
2023-02-14T21:07:15.721Z,91.75
2023-02-14T21:09:45.658Z,86.50
2023-02-14T21:12:15.122Z,67.67
2023-02-14T21:14:44.106Z,69.00
2023-02-14T21:17:12.979Z,70.00
2023-02-14T21:19:41.746Z,58.00
2023-02-14T21:22:10.826Z,64.67
2023-02-14T21:24:40.744Z,63.67
2023-02-14T21:27:09.455Z,63.00
2023-02-14T21:29:38.218Z,72.67
2023-02-14T21:32:07.557Z,66.00
2023-02-14T21:34:36.662Z,61.00
2023-02-14T21:37:05.724Z,51.67
2023-02-14T21:39:37.971Z,56.00
2023-02-14T21:42:07.796Z,69.33
2023-02-14T21:44:55.150Z,99.67
2023-02-14T21:47:23.990Z,109.00
2023-02-14T21:50:11.504Z,82.33
2023-02-14T21:52:40.506Z,73.33
2023-02-14T21:55:09.298Z,82.00
2023-02-14T21:57:38.164Z,88.67
2023-02-14T22:00:07.786Z,71.33
2023-02-14T22:02:39.691Z,60.33
2023-02-14T22:05:09.086Z,59.67
2023-02-14T22:07:38.408Z,50.67
2023-02-14T22:10:06.609Z,46.00
2023-02-14T22:12:35.325Z,50.33
2023-02-14T22:15:04.420Z,48.67
2023-02-14T22:17:33.276Z,45.00
2023-02-14T22:20:01.641Z,47.33
2023-02-14T22:22:29.685Z,43.00
2023-02-14T22:24:57.578Z,43.00
2023-02-14T22:27:25.660Z,43.00
2023-02-14T22:29:52.651Z,44.00
2023-02-14T22:32:21.098Z,45.00
2023-02-14T22:34:49.017Z,45.00
2023-02-14T22:37:15.982Z,43.00
2023-02-14T22:39:43.378Z,48.00
2023-02-14T22:42:12.311Z,47.33
2023-02-14T22:44:40.388Z,46.00
2023-02-14T22:47:09.009Z,48.33
2023-02-14T22:49:36.842Z,43.00
2023-02-14T22:52:05.908Z,44.33
2023-02-14T22:54:33.341Z,43.00
2023-02-14T22:57:01.300Z,48.33
2023-02-14T22:59:32.286Z,54.67
2023-02-14T23:02:01.716Z,51.00
2023-02-14T23:04:30.609Z,60.33
2023-02-14T23:06:58.533Z,52.00
2023-02-14T23:09:28.421Z,53.00
2023-02-14T23:11:57.405Z,54.67
2023-02-14T23:14:44.653Z,58.00
2023-02-14T23:17:18.945Z,49.00
2023-02-14T23:20:07.038Z,46.00
2023-02-14T23:22:40.816Z,49.00
2023-02-14T23:25:11.566Z,48.00
2023-02-14T23:27:41.677Z,41.00
2023-02-14T23:30:13.692Z,43.00
2023-02-14T23:32:41.963Z,42.50
2023-02-14T23:35:09.491Z,46.00
2023-02-14T23:37:37.789Z,47.33
2023-02-14T23:40:06.954Z,47.33
2023-02-14T23:42:37.293Z,46.00
2023-02-14T23:45:23.353Z,43.00
2023-02-14T23:47:50.488Z,42.00
2023-02-14T23:50:18.360Z,43.00
2023-02-14T23:52:46.233Z,41.33
2023-02-14T23:55:13.539Z,41.00
2023-02-14T23:57:40.571Z,42.00
